COMET47 EGDM-EGDM

Flight info

Callsign COMET47
Flight time 0h 9m
Altitude 5000
Route VLN STAY01/0100 VLN
Aircraft P8/M-SDE2E3FGHIRWXY/LB2

Departure

Time 2026-05-05 19:56
Airport MoD Boscombe Down (EGDM)

Arrival

Time 2026-05-05 20:05
Airport MoD Boscombe Down (EGDM)
Time Latitude Longitude Altitude Speed Heading
2026-05-05 19:11 51.05378 -2.62362 4975 ft 200 kts 86°
2026-05-05 19:11 51.05389 -2.60126 4966 ft 201 kts 87°
2026-05-05 19:12 51.05389 -2.57902 4963 ft 201 kts 86°
2026-05-05 19:12 51.05391 -2.55678 4968 ft 202 kts 87°
2026-05-05 19:12 51.05393 -2.53451 4980 ft 202 kts 87°
2026-05-05 19:12 51.05396 -2.51213 4975 ft 202 kts 87°
2026-05-05 19:13 51.05402 -2.48992 4962 ft 201 kts 87°
2026-05-05 19:13 51.05408 -2.46776 4977 ft 201 kts 87°
2026-05-05 19:13 51.05415 -2.44578 4961 ft 200 kts 87°
2026-05-05 19:13 51.05421 -2.42337 4960 ft 200 kts 87°
2026-05-05 19:14 51.05427 -2.40138 4960 ft 200 kts 87°
2026-05-05 19:14 51.05433 -2.37993 4973 ft 198 kts 87°
2026-05-05 19:14 51.05215 -2.35836 4965 ft 202 kts 114°
2026-05-05 19:14 51.04270 -2.34188 4969 ft 207 kts 147°
2026-05-05 19:15 51.02883 -2.33619 4973 ft 211 kts 181°
2026-05-05 19:15 51.01513 -2.34401 4958 ft 212 kts 219°
2026-05-05 19:15 51.00705 -2.36301 4961 ft 209 kts 257°
2026-05-05 19:15 51.00540 -2.38569 4979 ft 208 kts 271°
2026-05-05 19:16 51.00532 -2.40871 4968 ft 210 kts 272°
2026-05-05 19:16 51.00541 -2.43198 4963 ft 210 kts 272°
2026-05-05 19:16 51.00547 -2.45496 4964 ft 208 kts 273°
2026-05-05 19:16 51.00551 -2.47786 4959 ft 207 kts 273°
2026-05-05 19:17 51.00550 -2.50066 4965 ft 206 kts 273°
2026-05-05 19:17 51.00547 -2.52344 4971 ft 207 kts 273°
2026-05-05 19:17 51.00540 -2.54625 4976 ft 207 kts 272°
2026-05-05 19:17 51.00532 -2.56902 4958 ft 207 kts 272°
2026-05-05 19:18 51.00522 -2.59194 4962 ft 207 kts 272°
2026-05-05 19:18 51.00511 -2.61478 4971 ft 207 kts 272°
2026-05-05 19:18 51.00502 -2.63759 4975 ft 207 kts 273°
2026-05-05 19:18 51.00867 -2.65903 4964 ft 200 kts 307°
2026-05-05 19:19 51.01889 -2.67296 4977 ft 194 kts 338°
2026-05-05 19:19 51.03199 -2.67627 4966 ft 192 kts
2026-05-05 19:19 51.04392 -2.66838 4975 ft 193 kts 38°
2026-05-05 19:19 51.05194 -2.65095 4967 ft 196 kts 68°
2026-05-05 19:20 51.05408 -2.62950 4975 ft 198 kts 85°
2026-05-05 19:20 51.05430 -2.60751 4965 ft 200 kts 87°
2026-05-05 19:20 51.05430 -2.58543 4966 ft 200 kts 87°
2026-05-05 19:20 51.05430 -2.56334 4964 ft 200 kts 87°
2026-05-05 19:21 51.05432 -2.54142 4971 ft 201 kts 87°
2026-05-05 19:21 51.05435 -2.51926 4967 ft 201 kts 87°
2026-05-05 19:21 51.05441 -2.49683 4972 ft 200 kts 87°
2026-05-05 19:21 51.05448 -2.47508 4962 ft 199 kts 87°
2026-05-05 19:22 51.05454 -2.45281 4967 ft 199 kts 87°
2026-05-05 19:22 51.05460 -2.43114 4961 ft 199 kts 88°
2026-05-05 19:22 51.05465 -2.40918 4964 ft 198 kts 87°
2026-05-05 19:22 51.05471 -2.38734 4975 ft 197 kts 87°
2026-05-05 19:23 51.05412 -2.36546 4951 ft 200 kts 102°
2026-05-05 19:23 51.04707 -2.34664 4973 ft 203 kts 135°
2026-05-05 19:23 51.03443 -2.33664 4978 ft 208 kts 168°
2026-05-05 19:23 51.02015 -2.33934 4979 ft 211 kts 204°
2026-05-05 19:24 51.00938 -2.35457 4973 ft 210 kts 242°
2026-05-05 19:24 51.00567 -2.37693 4972 ft 207 kts 268°
2026-05-05 19:24 51.00531 -2.39948 4973 ft 208 kts 272°
2026-05-05 19:24 51.00538 -2.42234 4976 ft 209 kts 273°
2026-05-05 19:25 51.00545 -2.44563 4961 ft 209 kts 273°
2026-05-05 19:25 51.00549 -2.46870 4961 ft 209 kts 272°
2026-05-05 19:25 51.00550 -2.49166 4967 ft 208 kts 272°
2026-05-05 19:25 51.00547 -2.51469 4959 ft 208 kts 272°
2026-05-05 19:26 51.00542 -2.53761 4964 ft 208 kts 272°
2026-05-05 19:26 51.00535 -2.56058 4956 ft 207 kts 272°
2026-05-05 19:26 51.00526 -2.58339 4957 ft 207 kts 272°
2026-05-05 19:26 51.00515 -2.60627 4965 ft 206 kts 272°
2026-05-05 19:27 51.00505 -2.62898 4971 ft 206 kts 272°
2026-05-05 19:27 51.00626 -2.65146 4945 ft 203 kts 293°
2026-05-05 19:27 51.01440 -2.66861 4967 ft 195 kts 327°
2026-05-05 19:27 51.02691 -2.67597 4967 ft 192 kts 358°
2026-05-05 19:28 51.03975 -2.67177 4979 ft 192 kts 28°
2026-05-05 19:28 51.04934 -2.65714 4979 ft 194 kts 58°
2026-05-05 19:28 51.05312 -2.63655 4972 ft 198 kts 82°
2026-05-05 19:28 51.05359 -2.61463 4970 ft 199 kts 86°
2026-05-05 19:29 51.05363 -2.59253 4965 ft 200 kts 87°
2026-05-05 19:29 51.05363 -2.57046 4968 ft 200 kts 87°
2026-05-05 19:29 51.05364 -2.54857 4969 ft 201 kts 87°
2026-05-05 19:29 51.05367 -2.52632 4978 ft 201 kts 87°
2026-05-05 19:30 51.05372 -2.50409 4959 ft 201 kts 87°
2026-05-05 19:30 51.05379 -2.48198 4964 ft 199 kts 87°
2026-05-05 19:30 51.05386 -2.46006 4972 ft 199 kts 87°
2026-05-05 19:30 51.05393 -2.43800 4975 ft 199 kts 87°
2026-05-05 19:31 51.05398 -2.41605 4978 ft 199 kts 87°
2026-05-05 19:31 51.05404 -2.39414 4959 ft 198 kts 87°
2026-05-05 19:31 51.05401 -2.37234 4979 ft 198 kts 92°
2026-05-05 19:31 51.04927 -2.35192 4964 ft 202 kts 126°
2026-05-05 19:32 51.03802 -2.33884 4964 ft 206 kts 159°
2026-05-05 19:32 51.02371 -2.33767 4964 ft 210 kts 194°
2026-05-05 19:32 51.01146 -2.34981 4968 ft 210 kts 232°
2026-05-05 19:32 51.00604 -2.37095 4981 ft 208 kts 264°
2026-05-05 19:33 51.00530 -2.39406 4985 ft 211 kts 271°
2026-05-05 19:33 51.00532 -2.41338 4969 ft 213 kts 272°
2026-05-05 19:33 51.00541 -2.43682 4965 ft 211 kts 273°
2026-05-05 19:33 51.00547 -2.45987 4951 ft 207 kts 272°
2026-05-05 19:34 51.00550 -2.48260 4960 ft 205 kts 272°
2026-05-05 19:34 51.00548 -2.50533 4960 ft 205 kts 272°
2026-05-05 19:34 51.00544 -2.52794 4956 ft 205 kts 272°
2026-05-05 19:35 51.00530 -2.57291 4966 ft 203 kts 272°
2026-05-05 19:35 51.00520 -2.59533 4966 ft 203 kts 272°
2026-05-05 19:35 51.00510 -2.61773 4966 ft 203 kts 272°
2026-05-05 19:35 51.00506 -2.64017 4964 ft 203 kts 276°
2026-05-05 19:36 51.00953 -2.66073 4971 ft 196 kts 311°
2026-05-05 19:36 51.02030 -2.67307 4975 ft 192 kts 343°
2026-05-05 19:36 51.03342 -2.67435 4976 ft 191 kts 14°
2026-05-05 19:36 51.04488 -2.66407 4963 ft 193 kts 45°
2026-05-05 19:37 51.05126 -2.64538 4960 ft 198 kts 75°
2026-05-05 19:37 51.05217 -2.62351 4969 ft 199 kts 86°
2026-05-05 19:37 51.05229 -2.60145 4961 ft 200 kts 87°
2026-05-05 19:37 51.05237 -2.57933 4971 ft 200 kts 86°
2026-05-05 19:38 51.05244 -2.55716 4971 ft 200 kts 87°
2026-05-05 19:38 51.05251 -2.53504 4971 ft 200 kts 87°
2026-05-05 19:38 51.05259 -2.51298 4959 ft 199 kts 87°
2026-05-05 19:38 51.05267 -2.49109 4965 ft 197 kts 87°
2026-05-05 19:39 51.05275 -2.46935 4966 ft 197 kts 87°
2026-05-05 19:39 51.05282 -2.44763 4968 ft 197 kts 87°
2026-05-05 19:39 51.05288 -2.42645 4962 ft 197 kts 88°
2026-05-05 19:39 51.05294 -2.40466 4974 ft 197 kts 88°
2026-05-05 19:40 51.05300 -2.38304 4979 ft 196 kts 88°
2026-05-05 19:40 51.05160 -2.36148 4963 ft 199 kts 109°
2026-05-05 19:40 51.04311 -2.34427 4968 ft 203 kts 143°
2026-05-05 19:40 51.03457 -2.33823 4976 ft 205 kts 165°
2026-05-05 19:41 51.02038 -2.33993 4977 ft 210 kts 202°
2026-05-05 19:41 51.00940 -2.35452 4976 ft 209 kts 241°
2026-05-05 19:41 51.00573 -2.37645 4985 ft 206 kts 268°
2026-05-05 19:41 51.00536 -2.39923 4974 ft 207 kts 272°
2026-05-05 19:42 51.00541 -2.42222 4974 ft 208 kts 272°
2026-05-05 19:42 51.00548 -2.44520 4961 ft 208 kts 272°
2026-05-05 19:42 51.00552 -2.46817 4955 ft 208 kts 272°
2026-05-05 19:42 51.00551 -2.49111 4971 ft 207 kts 272°
2026-05-05 19:43 51.00548 -2.51397 4964 ft 208 kts 272°
2026-05-05 19:43 51.00543 -2.53689 4966 ft 207 kts 272°
2026-05-05 19:43 51.00536 -2.55979 4956 ft 207 kts 272°
2026-05-05 19:43 51.00526 -2.58257 4963 ft 206 kts 272°
2026-05-05 19:44 51.00516 -2.60528 4975 ft 206 kts 272°
2026-05-05 19:44 51.00505 -2.62800 4968 ft 205 kts 272°
2026-05-05 19:44 51.00608 -2.65036 4946 ft 203 kts 291°
2026-05-05 19:44 51.01400 -2.66784 4976 ft 195 kts 327°
2026-05-05 19:45 51.02637 -2.67528 4977 ft 191 kts 357°
2026-05-05 19:45 51.03919 -2.67109 4973 ft 191 kts 28°
2026-05-05 19:45 51.04866 -2.65647 4974 ft 193 kts 58°
2026-05-05 19:45 51.05224 -2.63588 4975 ft 197 kts 83°
2026-05-05 19:46 51.05267 -2.61404 4970 ft 198 kts 87°
2026-05-05 19:46 51.05271 -2.59208 4966 ft 199 kts 87°
2026-05-05 19:46 51.05271 -2.57005 4968 ft 199 kts 87°
2026-05-05 19:46 51.05273 -2.54804 4964 ft 200 kts 87°
2026-05-05 19:47 51.05275 -2.52593 4963 ft 200 kts 87°
2026-05-05 19:47 51.05280 -2.50394 4962 ft 199 kts 87°
2026-05-05 19:47 51.05287 -2.48199 4962 ft 197 kts 87°
2026-05-05 19:47 51.05294 -2.46024 4972 ft 197 kts 88°
2026-05-05 19:48 51.05300 -2.43839 4976 ft 198 kts 88°
2026-05-05 19:48 51.05306 -2.41656 4966 ft 197 kts 87°
2026-05-05 19:48 51.05312 -2.39473 4964 ft 197 kts 88°
2026-05-05 19:48 51.05312 -2.37300 4969 ft 197 kts 91°
2026-05-05 19:49 51.04862 -2.35257 4967 ft 201 kts 125°
2026-05-05 19:49 51.03748 -2.33948 4977 ft 204 kts 158°
2026-05-05 19:49 51.02333 -2.33836 4979 ft 209 kts 194°
2026-05-05 19:49 51.01124 -2.35042 4978 ft 210 kts 232°
2026-05-05 19:50 51.00600 -2.37149 4981 ft 206 kts 265°
2026-05-05 19:50 51.00533 -2.39427 4973 ft 207 kts 271°
2026-05-05 19:50 51.00536 -2.41720 4969 ft 208 kts 272°
2026-05-05 19:50 51.00545 -2.43985 4961 ft 208 kts 272°
2026-05-05 19:51 51.00550 -2.46280 4958 ft 208 kts 272°
2026-05-05 19:51 51.00551 -2.48604 4968 ft 207 kts 272°
2026-05-05 19:51 51.00549 -2.50899 4964 ft 208 kts 272°
2026-05-05 19:51 51.00545 -2.53191 4971 ft 207 kts 272°
2026-05-05 19:52 51.00537 -2.55443 4967 ft 207 kts 272°
2026-05-05 19:52 51.00628 -2.57724 4943 ft 203 kts 292°
2026-05-05 19:52 51.01451 -2.59391 4960 ft 194 kts 334°
2026-05-05 19:52 51.02752 -2.59593 4970 ft 189 kts 20°
2026-05-05 19:53 51.03776 -2.58312 4975 ft 198 kts 53°
2026-05-05 19:53 51.04215 -2.56098 4966 ft 229 kts 89°
2026-05-05 19:53 51.03926 -2.53587 4983 ft 234 kts 101°
2026-05-05 19:53 51.03531 -2.51075 4971 ft 237 kts 102°
2026-05-05 19:54 51.03109 -2.48399 4994 ft 260 kts 102°
2026-05-05 19:54 51.02668 -2.45588 4979 ft 264 kts 102°
2026-05-05 19:54 51.02228 -2.42753 4984 ft 265 kts 102°
2026-05-05 19:54 51.01794 -2.39932 4969 ft 262 kts 102°
2026-05-05 19:55 51.01365 -2.37126 4974 ft 260 kts 102°
2026-05-05 19:55 51.00942 -2.34352 4970 ft 258 kts 102°
2026-05-05 19:55 51.00522 -2.31595 4955 ft 255 kts 102°
2026-05-05 19:55 51.00109 -2.28875 4973 ft 253 kts 102°
2026-05-05 19:56 50.99699 -2.26171 4957 ft 251 kts 102°
2026-05-05 19:56 50.99291 -2.23487 4970 ft 249 kts 102°
2026-05-05 19:56 50.98883 -2.20801 4816 ft 253 kts 102°
2026-05-05 19:56 50.98475 -2.18124 4753 ft 245 kts 102°
2026-05-05 19:57 50.98079 -2.15545 4596 ft 237 kts 102°
2026-05-05 19:57 50.97695 -2.13043 4467 ft 228 kts 101°
2026-05-05 19:57 50.97413 -2.10634 4370 ft 217 kts 86°
2026-05-05 19:57 50.97804 -2.08419 4284 ft 204 kts 61°
2026-05-05 19:58 50.98603 -2.06651 4226 ft 191 kts 50°
2026-05-05 19:58 50.99424 -2.05128 4151 ft 178 kts 49°
2026-05-05 19:58 51.00213 -2.03673 4069 ft 165 kts 49°
2026-05-05 19:58 51.00937 -2.02328 3960 ft 159 kts 49°
2026-05-05 19:59 51.01639 -2.01015 3837 ft 156 kts 49°
2026-05-05 19:59 51.02339 -1.99705 3673 ft 154 kts 49°
2026-05-05 19:59 51.03008 -1.98452 3542 ft 152 kts 48°
2026-05-05 19:59 51.03694 -1.97164 3445 ft 152 kts 49°
2026-05-05 20:00 51.04358 -1.95913 3253 ft 141 kts 48°
2026-05-05 20:00 51.04958 -1.94779 3095 ft 128 kts 48°
2026-05-05 20:00 51.05525 -1.93708 2971 ft 125 kts 47°
2026-05-05 20:00 51.06090 -1.92663 2858 ft 124 kts 47°
2026-05-05 20:01 51.06647 -1.91621 2727 ft 124 kts 44°
2026-05-05 20:01 51.07212 -1.90578 2530 ft 124 kts 43°
2026-05-05 20:01 51.07778 -1.89496 2372 ft 133 kts 45°
2026-05-05 20:01 51.08389 -1.88333 2221 ft 138 kts 45°
2026-05-05 20:02 51.09000 -1.87180 2062 ft 135 kts 43°
2026-05-05 20:02 51.09599 -1.86049 1874 ft 131 kts 42°
2026-05-05 20:02 51.10180 -1.84943 1724 ft 130 kts 44°
2026-05-05 20:02 51.10759 -1.83830 1586 ft 131 kts 43°
2026-05-05 20:03 51.11347 -1.82721 1411 ft 133 kts 44°
2026-05-05 20:03 51.11942 -1.81572 1233 ft 136 kts 44°
2026-05-05 20:03 51.12538 -1.80407 1054 ft 139 kts 44°
2026-05-05 20:03 51.13162 -1.79225 863 ft 139 kts 44°
2026-05-05 20:04 51.13791 -1.78039 660 ft 141 kts 44°
2026-05-05 20:04 51.14404 -1.76851 422 ft 135 kts 45°
2026-05-05 20:04 51.14960 -1.75821 396 ft 108 kts 50°
2026-05-05 20:04 51.15362 -1.75050 393 ft 73 kts 50°
2026-05-05 20:05 51.15610 -1.74576 396 ft 38 kts 50°
2026-05-05 20:05 51.15723 -1.74356 395 ft 22 kts 49°
2026-05-05 20:05 51.15822 -1.74172 391 ft 23 kts 50°
2026-05-05 20:05 51.15924 -1.73976 389 ft 24 kts 51°
2026-05-05 20:06 51.16039 -1.73754 390 ft 28 kts 50°
2026-05-05 20:06 51.16169 -1.73576 391 ft 17 kts 346°
2026-05-05 20:06 51.16275 -1.73690 388 ft 19 kts 322°
2026-05-05 20:06 51.16367 -1.73833 392 ft 17 kts 291°
2026-05-05 20:07 51.16401 -1.74013 395 ft 17 kts 285°
2026-05-05 20:07 51.16432 -1.74183 405 ft 16 kts 286°
2026-05-05 20:07 51.16454 -1.74331 408 ft 10 kts 275°
2026-05-05 20:07 51.16438 -1.74435 409 ft 9 kts 236°
2026-05-05 20:08 51.16421 -1.74439 412 ft 3 kts 146°
2026-05-05 20:08 51.16386 -1.74375 410 ft 9 kts 118°
2026-05-05 20:08 51.16384 -1.74360 409 ft 0 kts 99°